CheckWX is a tool to help pilots better visualize weather data.  It is not intended as a substitute for an official pre-flight weather briefing.

16:54:37 UTC

KTEB TAF
Teterboro Airport
Teterboro, New Jersey, USA
KTEB 181531Z 1816/1918 32009G22KT P6SM SCT040 FM190000 32007KT P6SM SCT050 FM190500 33003KT P6SM SCT250 FM191500 33006KT P6SM SCT250

Oct-18@
16:00 UTC

Oct-18 @ 16:00 UTC

Oct-19@
00:00 UTC

Oct-19 @ 00:00 UTC

KTEB 181531Z 1816/1918 32009G22KT P6SM SCT040
Wind
  • 320° at 9 KTS
  • {Gusting to 22 KTS
Cloud Levels
  • Scattered at 4,000' AGL

Oct-19@
00:00 UTC

Oct-19 @ 00:00 UTC

Oct-19@
05:00 UTC

Oct-19 @ 05:00 UTC

FM190000 32007KT P6SM SCT050

From

From Standard forecast or significant change

Wind
  • 320° at 7 KTS
Cloud Levels
  • Scattered at 5,000' AGL

Oct-19@
05:00 UTC

Oct-19 @ 05:00 UTC

Oct-19@
15:00 UTC

Oct-19 @ 15:00 UTC

FM190500 33003KT P6SM SCT250

From

From Standard forecast or significant change

Wind
  • 330° at 3 KTS
Cloud Levels
  • Scattered at 25,000' AGL

Oct-19@
15:00 UTC

Oct-19 @ 15:00 UTC

Oct-19@
18:00 UTC

Oct-19 @ 18:00 UTC

FM191500 33006KT P6SM SCT250

From

From Standard forecast or significant change

Wind
  • 330° at 6 KTS
Cloud Levels
  • Scattered at 25,000' AGL